createdAt,value
2022-08-11T00:01:06.076Z,21.09
2022-08-11T00:03:42.484Z,21.05
2022-08-11T00:06:11.505Z,21.02
2022-08-11T00:08:38.840Z,20.95
2022-08-11T00:11:08.462Z,20.92
2022-08-11T00:13:42.670Z,20.92
2022-08-11T00:16:20.192Z,20.91
2022-08-11T00:18:53.126Z,20.86
2022-08-11T00:21:56.947Z,20.71
2022-08-11T00:24:18.486Z,20.82
2022-08-11T00:26:50.168Z,20.79
2022-08-11T00:29:20.697Z,20.74
2022-08-11T00:32:00.154Z,20.69
2022-08-11T00:34:29.898Z,20.67
2022-08-11T00:37:09.418Z,20.55
2022-08-11T00:39:43.814Z,20.60
2022-08-11T00:42:38.233Z,20.55
2022-08-11T00:45:30.038Z,20.40
2022-08-11T00:48:12.006Z,20.48
2022-08-11T00:51:01.559Z,20.45
2022-08-11T00:53:44.354Z,20.41
2022-08-11T00:56:25.505Z,20.38
2022-08-11T00:59:34.344Z,20.33
2022-08-11T01:02:37.828Z,20.25
2022-08-11T01:05:38.626Z,20.22
2022-08-11T01:08:20.771Z,20.19
2022-08-11T01:11:04.836Z,20.14
2022-08-11T01:13:57.162Z,20.11
2022-08-11T01:17:05.055Z,20.02
2022-08-11T01:20:45.475Z,19.97
2022-08-11T01:23:21.419Z,19.93
2022-08-11T01:26:11.923Z,19.89
2022-08-11T01:29:24.459Z,19.83
2022-08-11T01:31:56.901Z,19.80
2022-08-11T01:34:26.907Z,19.77
2022-08-11T01:37:13.724Z,19.73
2022-08-11T01:39:45.952Z,19.70
2022-08-11T01:43:31.341Z,19.64
2022-08-11T01:46:06.217Z,19.59
2022-08-11T01:48:45.153Z,19.57
2022-08-11T01:51:30.264Z,19.52
2022-08-11T01:54:05.886Z,19.47
2022-08-11T01:57:00.526Z,19.47
2022-08-11T01:59:37.175Z,19.25
2022-08-11T02:02:54.098Z,19.35
2022-08-11T02:05:52.443Z,19.32
2022-08-11T02:08:52.013Z,19.24
2022-08-11T02:11:37.538Z,19.14
2022-08-11T02:14:16.625Z,19.26
2022-08-11T02:16:55.306Z,19.10
2022-08-11T02:20:08.291Z,19.18
2022-08-11T02:23:59.633Z,19.12
2022-08-11T02:26:23.219Z,19.05
2022-08-11T02:28:58.641Z,19.05
2022-08-11T02:32:24.374Z,18.95
2022-08-11T02:35:04.220Z,18.88
2022-08-11T02:37:33.767Z,18.88
2022-08-11T02:40:25.301Z,18.83
2022-08-11T02:43:16.246Z,18.79
2022-08-11T02:46:17.967Z,18.63
2022-08-11T02:49:06.946Z,18.77
2022-08-11T02:51:55.752Z,18.67
2022-08-11T02:54:59.174Z,18.63
2022-08-11T02:57:35.188Z,18.61
2022-08-11T03:00:09.200Z,18.62
2022-08-11T03:02:57.629Z,18.59
2022-08-11T03:05:50.527Z,18.39
2022-08-11T03:08:57.926Z,18.56
2022-08-11T03:12:17.275Z,18.51
2022-08-11T03:15:13.159Z,18.46
2022-08-11T03:17:57.785Z,18.42
2022-08-11T03:20:33.144Z,18.40
2022-08-11T03:23:19.620Z,18.34
2022-08-11T03:25:55.610Z,18.23
2022-08-11T03:28:33.937Z,18.27
2022-08-11T03:31:12.355Z,18.25
2022-08-11T03:34:06.672Z,18.20
2022-08-11T03:37:16.486Z,18.23
2022-08-11T03:40:00.111Z,18.18
2022-08-11T03:42:46.358Z,18.09
2022-08-11T03:45:28.624Z,18.07
2022-08-11T03:48:08.131Z,18.05
2022-08-11T03:51:11.239Z,18.04
2022-08-11T03:53:56.641Z,18.02
2022-08-11T03:57:10.656Z,17.92
2022-08-11T03:59:59.514Z,18.00
2022-08-11T04:02:50.855Z,17.98
2022-08-11T04:05:39.037Z,17.98
2022-08-11T04:08:17.580Z,17.95
2022-08-11T04:11:12.227Z,17.92
2022-08-11T04:14:29.052Z,17.88
2022-08-11T04:17:22.761Z,17.84
2022-08-11T04:20:17.816Z,17.83
2022-08-11T04:23:03.611Z,17.81
2022-08-11T04:25:58.920Z,17.79
2022-08-11T04:28:43.069Z,17.78
2022-08-11T04:31:49.607Z,17.77
2022-08-11T04:34:56.293Z,17.79
2022-08-11T04:38:00.360Z,17.80
2022-08-11T04:41:00.523Z,17.84
2022-08-11T04:43:27.477Z,17.86
2022-08-11T04:46:09.238Z,17.87
2022-08-11T04:49:25.659Z,17.86
2022-08-11T04:52:50.544Z,17.84
2022-08-11T04:55:51.383Z,17.87
2022-08-11T04:58:55.921Z,18.02
2022-08-11T05:01:43.736Z,19.02
2022-08-11T05:05:00.801Z,20.85
2022-08-11T05:07:58.292Z,22.32
2022-08-11T05:10:24.856Z,23.22
2022-08-11T05:13:45.685Z,23.90
2022-08-11T05:16:34.247Z,24.97
2022-08-11T05:19:21.492Z,25.72
2022-08-11T05:22:15.350Z,26.36
2022-08-11T05:25:10.772Z,26.77
2022-08-11T05:28:12.756Z,27.50
2022-08-11T05:31:01.719Z,28.17
2022-08-11T05:33:55.597Z,28.67
2022-08-11T05:36:30.086Z,28.88
2022-08-11T05:39:36.493Z,29.18
2022-08-11T05:42:30.129Z,29.64
2022-08-11T05:45:57.323Z,30.08
2022-08-11T05:48:37.528Z,30.35
2022-08-11T05:51:30.178Z,30.70
2022-08-11T05:54:29.105Z,31.14
2022-08-11T05:57:02.147Z,31.35
2022-08-11T05:59:31.389Z,30.95
2022-08-11T06:02:10.498Z,30.70
2022-08-11T06:04:38.386Z,31.23
2022-08-11T06:07:11.667Z,31.53
2022-08-11T06:09:47.459Z,31.70
2022-08-11T06:12:26.320Z,31.62
2022-08-11T06:14:57.973Z,31.62
2022-08-11T06:17:38.603Z,31.42
2022-08-11T06:20:12.419Z,31.79
2022-08-11T06:22:42.092Z,32.22
2022-08-11T06:25:10.604Z,32.32
2022-08-11T06:27:38.651Z,32.79
2022-08-11T06:30:13.527Z,32.75
2022-08-11T06:32:43.593Z,33.03
2022-08-11T06:35:22.668Z,33.19
2022-08-11T06:38:09.661Z,32.92
2022-08-11T06:40:43.766Z,32.63
2022-08-11T06:43:18.924Z,32.73
2022-08-11T06:46:03.345Z,32.72
2022-08-11T06:48:32.885Z,33.21
2022-08-11T06:51:12.381Z,34.07
2022-08-11T06:54:03.453Z,34.42
2022-08-11T06:57:28.910Z,34.30
2022-08-11T07:00:06.922Z,34.33
2022-08-11T07:02:48.081Z,34.77
2022-08-11T07:05:28.722Z,35.03
2022-08-11T07:08:51.352Z,35.63
2022-08-11T07:11:57.641Z,35.12
2022-08-11T07:14:46.577Z,35.49
2022-08-11T07:17:21.452Z,35.86
2022-08-11T07:20:32.330Z,36.56
2022-08-11T07:23:20.801Z,36.85
2022-08-11T07:26:11.483Z,37.63
2022-08-11T07:28:59.053Z,37.99
2022-08-11T07:31:42.060Z,37.67
2022-08-11T07:34:38.556Z,38.36
2022-08-11T07:37:13.758Z,38.11
2022-08-11T07:39:44.731Z,38.73
2022-08-11T07:42:14.996Z,39.59
2022-08-11T07:45:01.625Z,38.72
2022-08-11T07:47:47.854Z,39.20
2022-08-11T07:50:33.455Z,39.14
2022-08-11T07:53:02.720Z,39.70
2022-08-11T07:55:49.565Z,39.77
2022-08-11T07:58:45.534Z,40.98
2022-08-11T08:01:43.286Z,41.00
2022-08-11T08:04:33.772Z,40.60
2022-08-11T08:07:21.589Z,39.72
2022-08-11T08:10:08.550Z,40.18
2022-08-11T08:12:54.878Z,41.03
2022-08-11T08:15:41.314Z,41.70
2022-08-11T08:18:26.803Z,41.07
2022-08-11T08:20:56.866Z,40.47
2022-08-11T08:23:35.825Z,39.67
2022-08-11T08:26:05.701Z,39.79
2022-08-11T08:28:46.600Z,39.55
2022-08-11T08:31:14.433Z,39.68
2022-08-11T08:33:44.914Z,40.29
2022-08-11T08:36:17.013Z,39.53
2022-08-11T08:38:51.157Z,39.20
2022-08-11T08:41:22.407Z,39.36
2022-08-11T08:43:53.699Z,38.66
2022-08-11T08:46:25.607Z,38.98
2022-08-11T08:48:53.733Z,38.67
2022-08-11T08:51:57.908Z,38.69
2022-08-11T08:54:34.043Z,39.33
2022-08-11T08:57:05.397Z,38.33
2022-08-11T08:59:48.600Z,38.13
2022-08-11T09:02:34.340Z,37.93
2022-08-11T09:05:04.029Z,38.53
2022-08-11T09:07:38.436Z,37.27
2022-08-11T09:10:08.463Z,36.39
2022-08-11T09:12:39.022Z,35.84
2022-08-11T09:15:08.142Z,36.00
2022-08-11T09:17:37.058Z,36.17
2022-08-11T09:20:13.684Z,35.72
2022-08-11T09:24:02.049Z,35.65
2022-08-11T09:26:12.239Z,36.54
2022-08-11T09:28:39.555Z,36.08
2022-08-11T09:31:07.172Z,35.97
2022-08-11T09:33:36.453Z,35.81
2022-08-11T09:36:23.732Z,35.75
2022-08-11T09:39:10.457Z,35.12
2022-08-11T09:42:23.617Z,35.13
2022-08-11T09:44:47.059Z,34.59
2022-08-11T09:47:18.693Z,34.34
2022-08-11T09:49:46.581Z,33.77
2022-08-11T09:52:15.322Z,33.94
2022-08-11T09:54:49.872Z,33.75
2022-08-11T09:57:38.493Z,33.78
2022-08-11T10:00:13.142Z,33.69
2022-08-11T10:02:47.404Z,33.28
2022-08-11T10:05:39.243Z,33.18
2022-08-11T10:08:09.132Z,33.00
2022-08-11T10:10:37.557Z,33.28
2022-08-11T10:14:29.352Z,33.44
2022-08-11T10:16:15.675Z,33.18
2022-08-11T10:18:52.748Z,32.93
2022-08-11T10:21:36.576Z,32.94
2022-08-11T10:24:24.296Z,33.23
2022-08-11T10:26:56.735Z,33.36
2022-08-11T10:29:55.148Z,33.12
2022-08-11T10:32:57.851Z,32.85
2022-08-11T10:35:29.555Z,32.90
2022-08-11T10:38:15.791Z,32.88
2022-08-11T10:40:46.962Z,33.05
2022-08-11T10:44:01.897Z,32.96
2022-08-11T10:46:29.793Z,33.01
2022-08-11T10:48:58.775Z,33.03
2022-08-11T10:51:51.170Z,33.15
2022-08-11T10:54:42.256Z,33.13
2022-08-11T10:57:29.264Z,32.81
2022-08-11T10:59:57.869Z,32.80
2022-08-11T11:02:27.166Z,33.13
2022-08-11T11:05:09.628Z,33.37
2022-08-11T11:07:44.376Z,33.56
2022-08-11T11:10:11.394Z,33.46
2022-08-11T11:13:04.810Z,33.60
2022-08-11T11:15:53.471Z,33.84
2022-08-11T11:18:24.180Z,33.67
2022-08-11T11:20:53.836Z,33.66
2022-08-11T11:23:23.235Z,33.58
2022-08-11T11:26:10.631Z,33.53
2022-08-11T11:28:58.696Z,33.53
2022-08-11T11:31:56.221Z,33.59
2022-08-11T11:34:59.910Z,33.83
2022-08-11T11:37:29.345Z,33.95
2022-08-11T11:39:57.858Z,34.03
2022-08-11T11:42:25.498Z,34.35
2022-08-11T11:44:55.790Z,34.33
2022-08-11T11:47:24.032Z,34.46
2022-08-11T11:49:51.107Z,34.59
2022-08-11T11:52:23.711Z,34.63
2022-08-11T11:54:55.222Z,34.76
2022-08-11T11:57:41.658Z,34.92
2022-08-11T12:00:44.268Z,35.21
2022-08-11T12:03:14.055Z,35.52
2022-08-11T12:05:43.780Z,35.45
2022-08-11T12:08:16.421Z,35.63
2022-08-11T12:11:36.478Z,35.74
2022-08-11T12:14:10.362Z,35.80
2022-08-11T12:16:40.674Z,35.73
2022-08-11T12:19:17.991Z,35.87
2022-08-11T12:22:04.255Z,36.06
2022-08-11T12:24:53.083Z,36.04
2022-08-11T12:27:24.089Z,36.36
2022-08-11T12:29:56.254Z,36.41
2022-08-11T12:32:35.059Z,36.64
2022-08-11T12:35:02.301Z,36.76
2022-08-11T12:37:43.791Z,36.80
2022-08-11T12:40:42.667Z,36.82
2022-08-11T12:43:39.266Z,36.56
2022-08-11T12:46:34.059Z,36.54
2022-08-11T12:49:27.149Z,36.56
2022-08-11T12:52:13.750Z,36.10
2022-08-11T12:55:14.133Z,36.16
2022-08-11T12:58:06.092Z,35.67
2022-08-11T13:00:54.725Z,35.80
2022-08-11T13:03:43.932Z,35.69
2022-08-11T13:06:23.219Z,35.33
2022-08-11T13:08:50.587Z,35.13
2022-08-11T13:11:56.153Z,35.07
2022-08-11T13:14:24.128Z,35.05
2022-08-11T13:17:10.539Z,34.82
2022-08-11T13:19:38.201Z,34.56
2022-08-11T13:22:07.616Z,34.35
2022-08-11T13:24:35.933Z,34.30
2022-08-11T13:27:05.129Z,34.34
2022-08-11T13:29:36.034Z,34.46
2022-08-11T13:32:03.473Z,34.56
2022-08-11T13:34:41.692Z,34.48
2022-08-11T13:37:12.122Z,34.23
2022-08-11T13:39:47.519Z,34.15
2022-08-11T13:42:18.090Z,33.92
2022-08-11T13:44:48.614Z,33.70
2022-08-11T13:47:16.207Z,33.67
2022-08-11T13:49:47.964Z,33.70
2022-08-11T13:52:17.492Z,33.77
2022-08-11T13:54:51.126Z,33.83
2022-08-11T13:58:08.755Z,33.94
2022-08-11T14:00:13.385Z,34.02
2022-08-11T14:02:56.991Z,33.78
2022-08-11T14:05:29.437Z,33.81
2022-08-11T14:08:02.746Z,33.72
2022-08-11T14:10:33.006Z,33.66
2022-08-11T14:13:27.047Z,33.65
2022-08-11T14:15:54.288Z,33.54
2022-08-11T14:18:30.822Z,33.42
2022-08-11T14:21:20.069Z,33.49
2022-08-11T14:23:50.896Z,33.43
2022-08-11T14:26:29.508Z,33.41
2022-08-11T14:29:08.466Z,33.41
2022-08-11T14:31:39.079Z,33.52
2022-08-11T14:34:10.357Z,33.56
2022-08-11T14:36:43.343Z,33.47
2022-08-11T14:39:18.312Z,33.57
2022-08-11T14:42:17.953Z,33.55
2022-08-11T14:45:22.766Z,33.56
2022-08-11T14:47:53.432Z,33.63
2022-08-11T14:50:25.614Z,33.67
2022-08-11T14:53:00.998Z,33.37
2022-08-11T14:55:48.690Z,33.73
2022-08-11T14:58:19.862Z,33.58
2022-08-11T15:00:49.908Z,33.46
2022-08-11T15:03:22.160Z,33.42
2022-08-11T15:05:57.641Z,33.40
2022-08-11T15:08:48.581Z,33.25
2022-08-11T15:11:37.463Z,33.32
2022-08-11T15:14:07.206Z,33.37
2022-08-11T15:16:54.722Z,33.42
2022-08-11T15:19:21.734Z,33.37
2022-08-11T15:22:07.853Z,33.34
2022-08-11T15:24:36.468Z,33.32
2022-08-11T15:27:32.537Z,33.28
2022-08-11T15:30:33.217Z,33.23
2022-08-11T15:33:23.425Z,33.20
2022-08-11T15:36:10.594Z,33.13
2022-08-11T15:38:44.500Z,33.11
2022-08-11T15:41:35.968Z,33.07
2022-08-11T15:44:58.986Z,33.13
2022-08-11T15:47:21.329Z,33.32
2022-08-11T15:50:10.487Z,33.31
2022-08-11T15:52:47.606Z,33.33
2022-08-11T15:55:14.964Z,33.21
2022-08-11T15:58:02.095Z,33.10
2022-08-11T16:00:49.690Z,33.06
2022-08-11T16:04:06.321Z,32.98
2022-08-11T16:06:37.081Z,33.02
2022-08-11T16:09:18.014Z,33.02
2022-08-11T16:11:49.336Z,32.94
2022-08-11T16:14:36.332Z,33.01
2022-08-11T16:17:06.042Z,32.95
2022-08-11T16:19:36.637Z,32.86
2022-08-11T16:22:09.679Z,32.78
2022-08-11T16:27:06.207Z,32.75
2022-08-11T16:27:34.127Z,32.71
2022-08-11T16:30:02.062Z,32.74
2022-08-11T16:32:31.262Z,32.69
2022-08-11T16:35:20.563Z,32.75
2022-08-11T16:38:07.139Z,32.72
2022-08-11T16:40:35.029Z,32.70
2022-08-11T16:43:24.127Z,32.66
2022-08-11T16:46:11.586Z,32.54
2022-08-11T16:48:41.460Z,32.73
2022-08-11T16:51:11.901Z,32.74
2022-08-11T16:53:54.669Z,32.68
2022-08-11T16:56:35.231Z,32.63
2022-08-11T16:59:15.471Z,32.60
2022-08-11T17:01:53.424Z,32.56
2022-08-11T17:05:00.263Z,32.50
2022-08-11T17:07:48.413Z,32.45
2022-08-11T17:10:55.443Z,32.56
2022-08-11T17:13:31.884Z,32.60
2022-08-11T17:16:08.782Z,32.61
2022-08-11T17:19:17.241Z,32.51
2022-08-11T17:22:07.334Z,32.53
2022-08-11T17:24:41.825Z,32.40
2022-08-11T17:27:09.736Z,32.21
2022-08-11T17:29:53.746Z,32.07
2022-08-11T17:33:00.577Z,31.94
2022-08-11T17:35:36.129Z,31.82
2022-08-11T17:38:16.518Z,31.76
2022-08-11T17:41:08.649Z,31.68
2022-08-11T17:43:54.372Z,31.61
2022-08-11T17:46:40.032Z,31.55
2022-08-11T17:49:09.836Z,31.46
2022-08-11T17:51:57.443Z,31.40
2022-08-11T17:54:44.394Z,31.36
2022-08-11T17:57:33.365Z,31.29
2022-08-11T18:00:02.500Z,31.22
2022-08-11T18:03:01.193Z,31.15
2022-08-11T18:05:34.067Z,31.08
2022-08-11T18:08:23.872Z,31.04
2022-08-11T18:11:11.418Z,30.92
2022-08-11T18:14:07.544Z,30.86
2022-08-11T18:16:53.055Z,30.73
2022-08-11T18:19:38.617Z,30.66
2022-08-11T18:22:40.443Z,30.57
2022-08-11T18:25:32.514Z,30.47
2022-08-11T18:28:19.700Z,30.38
2022-08-11T18:31:13.052Z,30.28
2022-08-11T18:34:07.511Z,30.17
2022-08-11T18:37:27.265Z,30.04
2022-08-11T18:40:22.346Z,29.91
2022-08-11T18:43:09.655Z,29.82
2022-08-11T18:46:06.485Z,29.68
2022-08-11T18:48:57.949Z,29.60
2022-08-11T18:51:47.196Z,29.49
2022-08-11T18:54:34.895Z,29.40
2022-08-11T18:57:25.321Z,29.28
2022-08-11T19:00:12.048Z,29.19
2022-08-11T19:02:59.314Z,29.08
2022-08-11T19:06:33.713Z,28.96
2022-08-11T19:08:58.808Z,28.81
2022-08-11T19:11:46.933Z,28.71
2022-08-11T19:14:34.468Z,28.60
2022-08-11T19:17:44.713Z,28.49
2022-08-11T19:20:31.946Z,28.37
2022-08-11T19:23:20.022Z,28.25
2022-08-11T19:26:06.563Z,28.14
2022-08-11T19:28:54.173Z,28.05
2022-08-11T19:31:44.338Z,27.92
2022-08-11T19:34:33.809Z,27.83
2022-08-11T19:37:24.414Z,27.74
2022-08-11T19:40:17.970Z,27.64
2022-08-11T19:43:04.368Z,27.55
2022-08-11T19:46:05.249Z,27.44
2022-08-11T19:48:51.394Z,27.32
2022-08-11T19:51:42.381Z,27.18
2022-08-11T19:54:29.288Z,27.17
2022-08-11T19:57:15.402Z,27.07
2022-08-11T20:00:01.361Z,26.99
2022-08-11T20:02:48.741Z,26.80
2022-08-11T20:05:36.244Z,26.79
2022-08-11T20:08:23.931Z,26.73
2022-08-11T20:11:10.032Z,26.66
2022-08-11T20:13:59.971Z,26.59
2022-08-11T20:16:45.840Z,26.50
2022-08-11T20:19:55.406Z,26.43
2022-08-11T20:22:38.237Z,26.31
2022-08-11T20:25:28.419Z,26.28
2022-08-11T20:28:14.656Z,26.18
2022-08-11T20:31:03.683Z,26.13
2022-08-11T20:33:50.781Z,26.07
2022-08-11T20:36:38.482Z,25.97
2022-08-11T20:39:24.796Z,25.90
2022-08-11T20:42:11.566Z,25.83
2022-08-11T20:44:57.890Z,25.77
2022-08-11T20:47:59.316Z,25.71
2022-08-11T20:50:46.611Z,25.64
2022-08-11T20:53:36.154Z,25.59
2022-08-11T20:56:28.502Z,25.51
2022-08-11T20:59:17.749Z,25.26
2022-08-11T21:02:09.986Z,25.36
2022-08-11T21:04:57.686Z,25.28
2022-08-11T21:07:55.357Z,25.24
2022-08-11T21:10:51.466Z,25.17
2022-08-11T21:13:39.288Z,25.10
2022-08-11T21:16:27.594Z,25.03
2022-08-11T21:20:00.646Z,24.95
2022-08-11T21:22:59.190Z,24.88
2022-08-11T21:26:05.881Z,24.82
2022-08-11T21:28:53.220Z,24.69
2022-08-11T21:31:39.904Z,24.69
2022-08-11T21:34:28.521Z,24.64
2022-08-11T21:37:14.678Z,24.57
2022-08-11T21:40:01.782Z,24.50
2022-08-11T21:42:50.765Z,24.41
2022-08-11T21:45:36.828Z,24.33
2022-08-11T21:48:25.396Z,24.33
2022-08-11T21:51:11.023Z,24.30
2022-08-11T21:53:57.683Z,24.23
2022-08-11T21:56:47.356Z,24.20
2022-08-11T21:59:40.738Z,24.15
2022-08-11T22:02:26.784Z,23.95
2022-08-11T22:05:12.409Z,23.96
2022-08-11T22:08:00.791Z,23.97
2022-08-11T22:10:48.716Z,23.93
2022-08-11T22:13:33.754Z,23.87
2022-08-11T22:16:19.360Z,23.77
2022-08-11T22:19:08.657Z,23.83
2022-08-11T22:21:59.605Z,23.79
2022-08-11T22:24:51.420Z,23.78
2022-08-11T22:27:37.018Z,23.69
2022-08-11T22:30:24.895Z,23.74
2022-08-11T22:33:10.945Z,23.67
2022-08-11T22:35:58.926Z,23.66
2022-08-11T22:38:47.425Z,23.51
2022-08-11T22:41:33.182Z,23.53
2022-08-11T22:44:18.677Z,23.49
2022-08-11T22:47:04.018Z,23.44
2022-08-11T22:49:57.171Z,23.24
2022-08-11T22:52:44.346Z,23.31
2022-08-11T22:55:29.831Z,23.21
2022-08-11T22:58:15.040Z,23.21
2022-08-11T23:01:01.125Z,23.10
2022-08-11T23:03:50.355Z,23.10
2022-08-11T23:06:39.339Z,23.06
2022-08-11T23:09:26.494Z,22.77
2022-08-11T23:12:12.663Z,22.65
2022-08-11T23:15:00.219Z,22.90
2022-08-11T23:17:46.465Z,22.85
2022-08-11T23:20:46.390Z,22.81
2022-08-11T23:23:40.546Z,22.67
2022-08-11T23:26:26.300Z,22.70
2022-08-11T23:29:14.559Z,22.61
2022-08-11T23:32:04.240Z,22.63
2022-08-11T23:35:37.088Z,22.55
2022-08-11T23:38:00.024Z,22.56
2022-08-11T23:40:48.129Z,22.55
2022-08-11T23:43:40.905Z,22.48
2022-08-11T23:46:26.341Z,22.45
2022-08-11T23:49:20.123Z,22.26
2022-08-11T23:52:06.690Z,22.37
2022-08-11T23:54:53.915Z,22.41
2022-08-11T23:57:47.517Z,22.36
